createdAt,value
2022-08-03T00:01:09.409Z,56.79
2022-08-03T00:04:45.980Z,57.25
2022-08-03T00:08:11.182Z,57.57
2022-08-03T00:11:17.370Z,58.04
2022-08-03T00:21:10.980Z,55.69
2022-08-03T00:24:20.925Z,55.39
2022-08-03T00:27:22.511Z,55.27
2022-08-03T00:30:24.076Z,56.29
2022-08-03T00:36:47.749Z,57.89
2022-08-03T00:39:49.216Z,58.17
2022-08-03T00:42:54.026Z,56.96
2022-08-03T00:45:55.580Z,58.67
2022-08-03T00:48:57.137Z,59.77
2022-08-03T00:52:00.518Z,59.43
2022-08-03T00:55:16.287Z,56.14
2022-08-03T00:58:23.306Z,55.81
2022-08-03T01:01:24.874Z,55.88
2022-08-03T01:04:37.396Z,57.75
2022-08-03T01:08:01.961Z,56.40
2022-08-03T01:11:18.981Z,56.17
2022-08-03T01:15:02.647Z,57.63
2022-08-03T01:18:22.442Z,56.75
2022-08-03T01:21:33.083Z,56.80
2022-08-03T01:24:55.692Z,56.88
2022-08-03T01:28:48.635Z,56.88
2022-08-03T01:32:54.552Z,57.78
2022-08-03T01:35:41.508Z,57.79
2022-08-03T01:38:49.149Z,58.78
2022-08-03T01:41:56.826Z,59.41
2022-08-03T01:45:00.733Z,59.80
2022-08-03T01:48:03.843Z,60.16
2022-08-03T01:51:07.967Z,60.26
2022-08-03T02:08:27.405Z,60.18
2022-08-03T02:11:32.348Z,60.18
2022-08-03T02:14:51.959Z,62.23
2022-08-03T02:17:54.803Z,62.59
2022-08-03T02:20:57.677Z,62.80
2022-08-03T02:27:51.952Z,63.19
2022-08-03T02:30:55.529Z,61.84
2022-08-03T02:37:45.105Z,61.26
2022-08-03T02:40:57.164Z,61.25
2022-08-03T02:44:51.959Z,61.24
2022-08-03T02:47:59.730Z,61.30
2022-08-03T02:51:03.749Z,61.13
2022-08-03T02:58:21.122Z,62.55
2022-08-03T03:01:25.651Z,63.36
2022-08-03T03:05:51.131Z,64.09
2022-08-03T03:08:18.644Z,62.92
2022-08-03T03:11:23.403Z,62.62
2022-08-03T03:14:43.940Z,62.70
2022-08-03T03:17:46.443Z,62.66
2022-08-03T03:21:04.311Z,62.81
2022-08-03T03:27:42.988Z,62.78
2022-08-03T03:30:52.761Z,63.04
2022-08-03T03:37:20.643Z,63.47
2022-08-03T03:40:22.733Z,63.41
2022-08-03T03:48:03.439Z,63.46
2022-08-03T03:51:05.671Z,63.51
2022-08-03T03:57:43.354Z,63.64
2022-08-03T04:00:45.200Z,64.28
2022-08-03T04:08:00.626Z,65.67
2022-08-03T04:11:11.091Z,66.39
2022-08-03T04:17:59.002Z,66.24
2022-08-03T04:21:07.262Z,66.56
2022-08-03T04:28:29.630Z,65.22
2022-08-03T04:31:29.723Z,65.22
2022-08-03T04:34:53.655Z,65.99
2022-08-03T04:38:00.942Z,66.44
2022-08-03T04:41:03.616Z,65.79
2022-08-03T04:48:58.430Z,66.35
2022-08-03T04:52:22.138Z,63.86
2022-08-03T05:06:54.954Z,62.08
2022-08-03T05:10:01.400Z,62.45
2022-08-03T05:17:45.671Z,60.83
2022-08-03T05:20:47.242Z,60.69
2022-08-03T05:24:31.885Z,60.40
2022-08-03T05:32:08.084Z,60.50
2022-08-03T05:36:00.685Z,60.51
2022-08-03T05:38:35.513Z,60.25
2022-08-03T05:41:42.690Z,60.36
2022-08-03T05:44:44.377Z,60.28
2022-08-03T05:47:49.652Z,60.01
2022-08-03T05:55:02.826Z,58.89
2022-08-03T05:58:45.529Z,58.42
2022-08-03T06:01:49.323Z,57.79
2022-08-03T06:08:51.810Z,56.41
2022-08-03T06:11:53.408Z,55.47
2022-08-03T06:15:05.403Z,50.65
2022-08-03T06:22:31.330Z,40.05
2022-08-03T06:25:33.167Z,38.46
2022-08-03T06:28:52.777Z,37.72
2022-08-03T06:32:15.631Z,39.60
2022-08-03T06:35:19.729Z,37.18
2022-08-03T06:38:21.464Z,36.06
2022-08-03T06:41:44.520Z,37.80
2022-08-03T06:45:20.348Z,38.08
2022-08-03T06:48:27.350Z,38.49
2022-08-03T06:55:32.757Z,38.44
2022-08-03T06:58:40.863Z,37.90
2022-08-03T07:01:44.801Z,38.11
2022-08-03T07:04:54.705Z,37.05
2022-08-03T07:07:59.509Z,37.18
2022-08-03T07:15:00.281Z,38.23
2022-08-03T07:18:05.421Z,38.88
2022-08-03T07:21:09.308Z,37.77
2022-08-03T07:24:46.291Z,38.06
2022-08-03T07:27:53.248Z,38.45
2022-08-03T07:30:58.443Z,38.36
2022-08-03T07:57:22.753Z,38.05
2022-08-03T08:00:25.006Z,38.76
2022-08-03T08:07:29.069Z,39.18
2022-08-03T08:11:16.548Z,40.20
2022-08-03T08:15:20.351Z,39.80
2022-08-03T08:18:43.022Z,39.77
2022-08-03T08:21:52.959Z,40.31
2022-08-03T08:25:01.694Z,40.08
2022-08-03T08:28:31.174Z,40.52
2022-08-03T08:31:25.357Z,39.58
2022-08-03T08:42:58.066Z,41.11
2022-08-03T08:46:22.729Z,40.76
2022-08-03T08:49:29.715Z,41.25
2022-08-03T08:52:33.239Z,39.65
2022-08-03T08:55:58.003Z,38.76
2022-08-03T08:59:01.613Z,38.56
2022-08-03T09:02:05.818Z,38.70
2022-08-03T09:10:01.214Z,37.97
2022-08-03T09:12:44.363Z,37.34
2022-08-03T09:16:00.722Z,37.11
2022-08-03T09:20:03.643Z,36.28
2022-08-03T09:36:40.376Z,36.51
2022-08-03T09:39:42.522Z,35.84
2022-08-03T09:42:57.079Z,35.34
2022-08-03T10:34:47.673Z,33.82
2022-08-03T10:38:16.764Z,34.65
2022-08-03T10:45:41.974Z,33.64
2022-08-03T10:49:20.690Z,32.73
2022-08-03T11:16:14.152Z,28.99
2022-08-03T11:44:47.880Z,29.31
2022-08-03T11:48:56.933Z,30.59
2022-08-03T12:47:29.876Z,30.12
2022-08-03T12:50:56.915Z,30.41
2022-08-03T12:54:09.211Z,29.55
2022-08-03T13:01:04.803Z,30.57
2022-08-03T13:04:46.317Z,29.61
2022-08-03T14:41:00.822Z,25.22
2022-08-03T14:56:00.447Z,25.78
2022-08-03T14:59:55.936Z,25.79
2022-08-03T15:06:40.186Z,26.04
2022-08-03T15:18:00.372Z,27.38
2022-08-03T15:26:29.292Z,25.87
2022-08-03T15:37:46.641Z,25.77
2022-08-03T15:41:14.614Z,25.39
2022-08-03T15:48:36.107Z,25.19
2022-08-03T15:52:02.899Z,25.33
2022-08-03T15:55:50.860Z,25.57
2022-08-03T15:59:13.348Z,25.54
2022-08-03T16:07:30.709Z,25.66
2022-08-03T16:10:51.102Z,25.46
2022-08-03T16:41:53.942Z,27.62
2022-08-03T18:10:05.316Z,32.98
2022-08-03T18:17:55.603Z,34.56
2022-08-03T18:28:06.357Z,34.33
2022-08-03T18:31:59.848Z,35.40
2022-08-03T18:34:53.735Z,35.50
2022-08-03T18:38:10.255Z,35.44
2022-08-03T19:12:44.496Z,39.10
2022-08-03T19:15:51.807Z,39.12
2022-08-03T19:18:57.751Z,39.62
2022-08-03T19:22:00.063Z,37.96
2022-08-03T19:25:01.911Z,39.53
2022-08-03T19:28:06.360Z,38.28
2022-08-03T19:35:51.216Z,38.43
2022-08-03T19:38:59.758Z,38.77
2022-08-03T19:57:49.274Z,40.15
2022-08-03T20:00:55.108Z,39.01
2022-08-03T20:08:26.669Z,38.92
2022-08-03T20:11:29.022Z,39.10
2022-08-03T20:14:51.927Z,39.26
2022-08-03T20:17:58.475Z,39.37
2022-08-03T20:21:09.823Z,39.58
2022-08-03T20:24:40.133Z,39.63
2022-08-03T20:28:07.764Z,40.54
2022-08-03T20:31:09.564Z,40.54
2022-08-03T20:34:30.293Z,40.34
2022-08-03T20:37:51.838Z,40.28
2022-08-03T20:40:53.414Z,39.05
2022-08-03T20:47:50.620Z,38.53
2022-08-03T20:50:53.281Z,38.14
2022-08-03T20:54:45.433Z,38.24
2022-08-03T20:57:51.699Z,38.33
2022-08-03T21:00:54.353Z,38.09
2022-08-03T21:08:08.391Z,38.75
2022-08-03T21:11:16.632Z,38.85
2022-08-03T21:14:51.888Z,39.27
2022-08-03T21:17:56.038Z,39.19
2022-08-03T21:21:00.849Z,39.10
2022-08-03T21:24:45.013Z,39.19
2022-08-03T21:27:48.725Z,39.15
2022-08-03T21:30:51.162Z,41.43
2022-08-03T21:37:50.463Z,42.93
2022-08-03T21:40:52.132Z,41.95
2022-08-03T21:44:44.669Z,42.23
2022-08-03T21:47:47.287Z,40.33
2022-08-03T21:50:50.775Z,39.55
2022-08-03T21:54:50.060Z,42.16
2022-08-03T21:57:58.433Z,42.35
2022-08-03T22:01:03.182Z,42.13
2022-08-03T22:07:49.653Z,42.94
2022-08-03T22:10:53.117Z,43.76
2022-08-03T22:17:53.631Z,43.41
2022-08-03T22:20:57.363Z,44.85
2022-08-03T22:27:53.393Z,43.17
2022-08-03T22:30:55.316Z,41.34
2022-08-03T22:37:48.124Z,44.93
2022-08-03T22:40:49.820Z,43.21
2022-08-03T22:47:46.213Z,44.08
2022-08-03T22:50:48.001Z,44.19
2022-08-03T22:57:56.232Z,44.08
2022-08-03T23:01:05.680Z,44.73
2022-08-03T23:07:44.437Z,45.15
2022-08-03T23:10:47.455Z,46.21
2022-08-03T23:17:57.626Z,46.33
2022-08-03T23:21:02.526Z,45.42
2022-08-03T23:27:45.037Z,43.90
2022-08-03T23:30:49.667Z,45.25
2022-08-03T23:38:04.128Z,46.22
2022-08-03T23:41:18.396Z,46.57
2022-08-03T23:45:06.145Z,45.76
2022-08-03T23:48:08.077Z,45.99
2022-08-03T23:51:18.843Z,45.77
2022-08-03T23:54:48.015Z,46.44
2022-08-03T23:58:02.788Z,46.69
